Meteo Giornale » Osservazioni meteo Gran Bretagna » Doncaster Sheffield

ore: 07:50 - Osservazioni Meteo Doncaster Sheffield
Lat. 53° 29' N Lon. 1° 0' W Alt. 17 metri s.l.m.

sereno Europe/London

12 °C

Sereno

Temp. 24 Ore

7 °C

19 °C

Sud/Sud-Est

9.3 Km/h

Dew point 10 °C

Umidità 87 %

Visibilità  10 Km

Il sole sorge alle ore 05:24

Il sole tramonta alle ore 20:55

Data e Ora Cielo e Fenomeni T °C DP °C Um. % Pres. hPa Vis. km Vento km/h
Oggi h: 07:50 sereno Sereno 12 10 87 1016 10 S/SE 9.3
Oggi h: 06:50 sereno Sereno 9 8 93 1017 10 S/SE 7.4
Oggi h: 06:20 sereno Sereno 8 7 93 1017 10 S 9.3
Oggi h: 05:50 sereno Sereno 7 6 93 1017 10 S 11.1
Oggi h: 05:20 sereno Sereno 7 6 93 1017 10 S 9.3
Oggi h: 04:50 sereno Sereno 7 6 93 1017 10 N 5.5
Oggi h: 04:20 sereno Sereno 7 6 93 1017 10 N 5.5
Oggi h: 03:50 sereno Sereno 7 6 93 1017 10 S 7.4
Oggi h: 03:20 sereno Sereno 8 7 93 1017 10 N 3.7
Oggi h: 02:50 sereno Sereno 8 7 93 1018 10 N 5.5
Oggi h: 02:20 sereno Sereno 9 7 87 1018 10 O/SO 7.4
Oggi h: 01:50 sereno Sereno 9 7 87 1018 10 SO 7.4
Oggi h: 01:20 sereno Sereno 10 7 81 1018 10 O/SO 9.3
Oggi h: 00:50 sereno Sereno 10 7 81 1018 10 O/SO 9.3
Oggi h: 00:20 sereno Sereno 10 7 81 1018 10 O 9.3
Ieri h: 23:50 sereno Sereno 12 7 71 1018 10 O 11.1
Ieri h: 23:20 sereno Sereno 11 7 76 1018 10 O 11.1
Ieri h: 22:50 sereno Sereno 12 7 71 1018 10 O 13
Ieri h: 22:20 sereno Sereno 13 7 66 1018 10 O 11.1
Ieri h: 21:50 sereno Sereno 13 6 62 1018 10 O 11.1
Ieri h: 21:20 sereno Sereno 14 7 62 1017 10 O 11.1
Ieri h: 20:50 sereno Sereno 15 7 58 1017 10 O 13
Ieri h: 20:20 sereno Sereno 16 7 55 1017 10 O/NO 7.4
Ieri h: 19:50 sereno Sereno 17 6 48 1017 10 O/NO 13
Ieri h: 19:20 poco_nuvoloso Poco Nuvoloso 17 6 48 1017 10 O 14.8
Ieri h: 18:50 poco_nuvoloso Poco Nuvoloso 17 6 48 1016 10 O 14.8
Ieri h: 18:20 poco_nuvoloso Poco Nuvoloso 19 7 45 1016 10 N/NO 13
Ieri h: 17:50 nuvoloso Nuvoloso 18 7 48 1016 10 NO 14.8
Ieri h: 17:20 poco_nuvoloso Poco Nuvoloso 18 7 48 1016 10 O 16.7
Ieri h: 16:50 poco_nuvoloso Poco Nuvoloso 18 7 48 1016 10 O 18.5
Ieri h: 16:20 nuvoloso Nuvoloso 18 8 51 1016 10 O 16.7
Ieri h: 15:50 nuvoloso Nuvoloso 19 8 48 1016 10 N 11.1
Ieri h: 15:20 nuvoloso Nuvoloso 17 8 55 1016 10 O 11.1
Ieri h: 14:50 nuvoloso Nuvoloso 17 7 51 1016 10 NO 11.1
Ieri h: 14:20 poco_nuvoloso Poco Nuvoloso 18 6 45 1016 10 O 13
Ieri h: 13:50 poco_nuvoloso Poco Nuvoloso 18 9 55 1017 10 O 20.3
Ieri h: 13:20 poco_nuvoloso Poco Nuvoloso 18 7 48 1017 10 O 18.5
Ieri h: 12:50 poco_nuvoloso Poco Nuvoloso 18 7 48 1017 10 O/NO 9.3
Ieri h: 12:20 poco_nuvoloso Poco Nuvoloso 18 7 48 1017 10 NO 9.3
Ieri h: 11:50 nuvoloso Nuvoloso 17 7 51 1017 10 N/NO 13
Ieri h: 11:20 nuvoloso Nuvoloso 18 8 51 1017 10 N 9.3
Ieri h: 10:50 nuvoloso Nuvoloso 17 8 55 1016 10 N 11.1
Ieri h: 10:20 nuvoloso Nuvoloso 17 9 59 1017 10 N/NO 11.1
Ieri h: 09:50 nuvoloso Nuvoloso 16 10 67 1017 10 NO 11.1
Ieri h: 09:20 nuvoloso Nuvoloso 16 11 72 1017 10 NO 13
Ieri h: 08:50 nuvoloso Nuvoloso 15 11 76 1017 10 NO 14.8